Time;durP1;ratioP1;P1;durP2;ratioP2;P2;SDS_P1;SDS_P2;PMS_P1;PMS_P2;Temp;Humidity;BMP_temperature;BMP_pressure;BME280_temperature;BME280_humidity;BME280_pressure;Samples;Min_cycle;Max_cycle;Signal;HPM_P1;HPM_P2
2022/04/17 00:00:51;;;;;;;;;;;;;;;;;;5007568;28;19906;-58
2022/04/17 00:06:06;;;;;;;;;;;;;;;;;;5009387;28;19928;-58
2022/04/17 00:11:41;;;;;;;;;;;;;;;;;;4986830;28;19910;-58
2022/04/17 00:14:14;;;;;;;;;;;;;;;;;;4947769;29;20289;-58
2022/04/17 00:19:44;;;;;;;;;;;;;;;;;;4975580;28;20005;-58
2022/04/17 00:22:13;;;;;;;;;;;;;;;;;;4986702;28;19941;-58
2022/04/17 00:24:52;;;;;;;;;;;;;;;;;;4986731;28;20041;-58
2022/04/17 00:27:31;;;;;;;;;;;;;;;;;;;;;
2022/04/17 00:30:03;;;;;;;;;;;;;;;;;;5001596;28;20024;-58
2022/04/17 00:32:34;;;;;;;;;;;;;;;;;;5004969;28;19934;-58
2022/04/17 00:35:13;;;;;;;;;;;;;;;;;;;;;
2022/04/17 00:37:46;;;;;;;;;;;;;;;;;;5006891;28;19940;-58
2022/04/17 00:40:15;;;;;;;;;;;;;;;;;;5008420;28;19913;-58
2022/04/17 00:42:58;;;;;;;;;;;;;;;;;;;;;
2022/04/17 00:48:16;;;;;;;;;;;;;;;;;;5006749;28;19912;-58
2022/04/17 00:50:42;;;;;;;;;;;;;;;;;;5007783;28;20233;-58
2022/04/17 00:53:11;;;;;;;;;;;;;;;;;;5006703;28;20028;-58
2022/04/17 00:55:40;;;;;;;;;;;;;;;;;;5007467;28;19913;-58
2022/04/17 00:58:13;;;;;;;;;;;;;;;;;;5006711;28;19913;-58
2022/04/17 01:00:38;;;;;;;;;;;;;;;;;;5005767;28;19945;-58
2022/04/17 01:03:10;;;;;;;;;;;;;;;;;;5007489;28;19982;-58
2022/04/17 01:08:43;;;;;;;;;;;;;;;;;;;;;
2022/04/17 01:11:26;;;;;;;;;;;;;;;;;;5007264;28;19953;-58
2022/04/17 01:16:48;;;;;;;;;;;;;;;;;;5007708;28;20374;-58
2022/04/17 01:19:16;;;;;;;;;;;;;;;;;;5006984;28;19917;-58
2022/04/17 01:21:46;;;;;;;;;;;;;;;;;;5007491;28;19905;-58
2022/04/17 01:26:56;;;;;;;;;;;;;;;;;;5007000;28;19913;-58
2022/04/17 01:29:35;;;;;;;;;;;;;;;;;;5006557;28;19913;-58
2022/04/17 01:34:46;;;;;;;;;;;;;;;;;;5006739;28;19967;-58
2022/04/17 01:37:13;;;;;;;;;;;;;;;;;;5005979;28;19906;-58
2022/04/17 01:39:45;;;;;;;;;;;;;;;;;;5007014;28;19917;-58
2022/04/17 01:42:22;;;;;;;;;;;;;;;;;;;;;
2022/04/17 01:45:10;;;;;;;;;;;;;;;;;;4987152;28;19945;-58
2022/04/17 01:50:30;;;;;;;;;;;;;;;;;;5007237;28;19949;-58
2022/04/17 01:53:02;;;;;;;;;;;;;;;;;;5006981;28;19913;-58
2022/04/17 01:55:32;;;;;;;;;;;;;;;;;;5003706;28;19905;-58
2022/04/17 01:58:08;;;;;;;;;;;;;;;;;;;;;
2022/04/17 02:00:34;;;;;;;;;;;;;;;;;;4966120;29;20350;-58
2022/04/17 02:03:10;;;;;;;;;;;;;;;;;;4981030;28;19927;-58
2022/04/17 02:08:29;;;;;;;;;;;;;;;;;;5004160;28;19917;-59
2022/04/17 02:11:05;;;;;;;;;;;;;;;;;;5003765;28;19980;-58
2022/04/17 02:13:34;;;;;;;;;;;;;;;;;;5006844;28;20006;-59
2022/04/17 02:16:04;;;;;;;;;;;;;;;;;;5006195;28;19912;-58
2022/04/17 02:18:33;;;;;;;;;;;;;;;;;;5009280;28;19916;-59
2022/04/17 02:21:08;;;;;;;;;;;;;;;;;;5010510;28;19906;-58
2022/04/17 02:23:41;;;;;;;;;;;;;;;;;;5010848;28;19917;-58
2022/04/17 02:26:16;;;;;;;;;;;;;;;;;;5009097;28;19906;-59
2022/04/17 02:28:51;;;;;;;;;;;;;;;;;;5009377;28;19916;-58
2022/04/17 02:31:20;;;;;;;;;;;;;;;;;;5011127;28;19916;-58
2022/04/17 02:33:46;;;;;;;;;;;;;;;;;;5010733;28;19928;-58
2022/04/17 02:36:12;;;;;;;;;;;;;;;;;;5010705;28;19912;-58
2022/04/17 02:39:01;;;;;;;;;;;;;;;;;;;;;
2022/04/17 02:41:29;;;;;;;;;;;;;;;;;;4976302;28;20001;-58
2022/04/17 02:44:14;;;;;;;;;;;;;;;;;;5010315;28;19906;-58
2022/04/17 02:49:50;;;;;;;;;;;;;;;;;;5009658;28;19922;-59
2022/04/17 02:55:23;;;;;;;;;;;;;;;;;;4999765;28;20080;-58
2022/04/17 02:57:56;;;;;;;;;;;;;;;;;;5009050;28;20390;-58
2022/04/17 03:05:35;;;;;;;;;;;;;;;;;;5008679;28;19917;-59
2022/04/17 03:06:11;;;;;;;;;;;;;;;;;;5009367;28;19912;-58
2022/04/17 03:08:38;;;;;;;;;;;;;;;;;;5008564;28;19909;-58
2022/04/17 03:14:08;;;;;;;;;;;;;;;;;;5009747;28;19913;-58
2022/04/17 03:16:43;;;;;;;;;;;;;;;;;;5009390;28;19913;-58
2022/04/17 03:19:10;;;;;;;;;;;;;;;;;;5008377;28;19967;-58
2022/04/17 03:21:39;;;;;;;;;;;;;;;;;;5008851;28;19917;-58
2022/04/17 03:24:15;;;;;;;;;;;;;;;;;;5008002;28;19913;-58
2022/04/17 03:26:41;;;;;;;;;;;;;;;;;;5008955;28;19906;-58
2022/04/17 03:29:16;;;;;;;;;;;;;;;;;;5007259;28;19938;-58
2022/04/17 03:32:02;;;;;;;;;;;;;;;;;;4996349;28;19914;-58
2022/04/17 03:34:40;;;;;;;;;;;;;;;;;;4995116;28;19905;-57
2022/04/17 03:37:14;;;;;;;;;;;;;;;;;;4996010;28;19917;-58
2022/04/17 03:40:02;;;;;;;;;;;;;;;;;;;;;
2022/04/17 03:42:39;;;;;;;;;;;;;;;;;;;;;
2022/04/17 03:45:11;;;;;;;;;;;;;;;;;;4996296;28;20294;-58
2022/04/17 03:47:57;;;;;;;;;;;;;;;;;;;;;
2022/04/17 03:50:32;;;;;;;;;;;;;;;;;;4996919;28;20439;-58
2022/04/17 03:55:47;;;;;;;;;;;;;;;;;;4985736;28;19961;-57
2022/04/17 04:00:49;;;;;;;;;;;;;;;;;;4996223;28;20241;-58
2022/04/17 04:06:20;;;;;;;;;;;;;;;;;;4973858;28;19906;-57
2022/04/17 04:11:33;;;;;;;;;;;;;;;;;;4974194;28;19913;-58
2022/04/17 04:14:06;;;;;;;;;;;;;;;;;;4957738;28;19961;-58
2022/04/17 04:16:35;;;;;;;;;;;;;;;;;;4974197;28;19906;-58
2022/04/17 04:19:10;;;;;;;;;;;;;;;;;;4973125;28;20304;-58
2022/04/17 04:21:47;;;;;;;;;;;;;;;;;;4973859;28;19945;-58
2022/04/17 04:24:13;;;;;;;;;;;;;;;;;;4972005;28;19936;-57
2022/04/17 04:26:45;;;;;;;;;;;;;;;;;;4995717;28;20253;-58
2022/04/17 04:29:11;;;;;;;;;;;;;;;;;;4995051;28;20355;-58
2022/04/17 04:31:38;;;;;;;;;;;;;;;;;;5002769;28;20319;-58
2022/04/17 04:37:06;;;;;;;;;;;;;;;;;;5007704;28;19913;-58
2022/04/17 04:48:03;;;;;;;;;;;;;;;;;;5006249;28;19964;-58
2022/04/17 04:53:17;;;;;;;;;;;;;;;;;;5007471;28;19921;-58
2022/04/17 04:55:49;;;;;;;;;;;;;;;;;;5007459;28;19906;-58
2022/04/17 04:58:24;;;;;;;;;;;;;;;;;;5007048;28;19906;-58
2022/04/17 05:00:53;;;;;;;;;;;;;;;;;;5007730;28;19912;-58
2022/04/17 05:03:37;;;;;;;;;;;;;;;;;;5007268;28;19937;-58
2022/04/17 05:09:17;;;;;;;;;;;;;;;;;;4984664;28;19945;-58
2022/04/17 05:11:43;;;;;;;;;;;;;;;;;;4985085;28;19910;-58
2022/04/17 05:14:20;;;;;;;;;;;;;;;;;;;;;
2022/04/17 05:17:04;;;;;;;;;;;;;;;;;;4921361;28;19965;-58
2022/04/17 05:19:40;;;;;;;;;;;;;;;;;;4969922;28;19982;-58
2022/04/17 05:22:16;;;;;;;;;;;;;;;;;;5005562;28;20269;-58
2022/04/17 05:27:40;;;;;;;;;;;;;;;;;;5006028;28;20271;-58
2022/04/17 05:30:19;;;;;;;;;;;;;;;;;;5006858;28;20331;-59
2022/04/17 05:32:48;;;;;;;;;;;;;;;;;;5006892;28;19916;-58
2022/04/17 05:35:15;;;;;;;;;;;;;;;;;;5004467;28;19912;-58
2022/04/17 05:37:47;;;;;;;;;;;;;;;;;;5003581;28;19905;-59
2022/04/17 05:43:17;;;;;;;;;;;;;;;;;;4965933;28;19914;-59
2022/04/17 05:45:48;;;;;;;;;;;;;;;;;;4966015;29;19906;-59
2022/04/17 05:51:01;;;;;;;;;;;;;;;;;;4961388;28;20489;-59
2022/04/17 05:56:19;;;;;;;;;;;;;;;;;;5004577;28;19912;-58
2022/04/17 05:58:50;;;;;;;;;;;;;;;;;;5002745;28;20366;-59
2022/04/17 06:01:16;;;;;;;;;;;;;;;;;;5003150;28;19906;-59
2022/04/17 06:03:52;;;;;;;;;;;;;;;;;;5004120;28;19977;-58
2022/04/17 06:06:18;;;;;;;;;;;;;;;;;;5004130;28;19905;-58
2022/04/17 06:09:00;;;;;;;;;;;;;;;;;;5002634;28;19916;-58
2022/04/17 06:17:16;;;;;;;;;;;;;;;;;;4982237;28;19906;-60
2022/04/17 06:22:40;;;;;;;;;;;;;;;;;;4975336;28;19906;-58
2022/04/17 06:25:16;;;;;;;;;;;;;;;;;;4984432;28;19934;-57
2022/04/17 06:27:42;;;;;;;;;;;;;;;;;;4983825;28;20447;-57
2022/04/17 06:32:56;;;;;;;;;;;;;;;;;;5006118;28;20276;-59
2022/04/17 06:35:22;;;;;;;;;;;;;;;;;;5005858;28;19906;-59
2022/04/17 06:37:57;;;;;;;;;;;;;;;;;;5005160;28;19906;-59
2022/04/17 06:40:26;;;;;;;;;;;;;;;;;;5006009;28;19928;-59
2022/04/17 06:43:21;;;;;;;;;;;;;;;;;;;;;
2022/04/17 06:46:00;;;;;;;;;;;;;;;;;;;;;
2022/04/17 06:48:45;;;;;;;;;;;;;;;;;;4985861;28;20020;-59
2022/04/17 06:51:26;;;;;;;;;;;;;;;;;;5006280;28;19910;-59
2022/04/17 06:53:53;;;;;;;;;;;;;;;;;;5006140;28;19940;-59
2022/04/17 06:56:23;;;;;;;;;;;;;;;;;;5005812;28;19926;-59
2022/04/17 06:58:58;;;;;;;;;;;;;;;;;;5005005;28;19912;-59
2022/04/17 07:01:31;;;;;;;;;;;;;;;;;;5005647;28;19906;-59
2022/04/17 07:03:59;;;;;;;;;;;;;;;;;;5008529;28;19913;-59
2022/04/17 07:06:44;;;;;;;;;;;;;;;;;;5009751;28;19917;-59
2022/04/17 07:09:13;;;;;;;;;;;;;;;;;;5008501;28;19909;-59
2022/04/17 07:11:45;;;;;;;;;;;;;;;;;;5007431;28;19977;-59
2022/04/17 07:14:21;;;;;;;;;;;;;;;;;;5008800;28;19905;-59
2022/04/17 07:19:45;;;;;;;;;;;;;;;;;;4986684;28;19906;-59
2022/04/17 07:22:29;;;;;;;;;;;;;;;;;;4986353;28;19949;-59
2022/04/17 07:25:01;;;;;;;;;;;;;;;;;;4986442;28;19984;-59
2022/04/17 07:27:33;;;;;;;;;;;;;;;;;;4986582;28;19997;-59
2022/04/17 07:30:12;;;;;;;;;;;;;;;;;;4987874;28;19910;-59
2022/04/17 07:32:56;;;;;;;;;;;;;;;;;;4987361;28;19906;-59
2022/04/17 07:38:15;;;;;;;;;;;;;;;;;;5003432;28;19905;-59
2022/04/17 07:46:21;;;;;;;;;;;;;;;;;;5008086;28;20005;-59
2022/04/17 07:49:02;;;;;;;;;;;;;;;;;;5007893;28;19910;-59
2022/04/17 07:51:47;;;;;;;;;;;;;;;;;;5008793;28;19909;-59
2022/04/17 07:54:28;;;;;;;;;;;;;;;;;;5009047;28;19941;-59
2022/04/17 07:56:58;;;;;;;;;;;;;;;;;;5008544;28;20334;-59
2022/04/17 07:59:25;;;;;;;;;;;;;;;;;;5008173;28;19906;-57
2022/04/17 08:04:56;;;;;;;;;;;;;;;;;;4986374;28;19969;-57
2022/04/17 08:07:28;;;;;;;;;;;;;;;;;;4985233;28;19906;-58
2022/04/17 08:09:54;;;;;;;;;;;;;;;;;;4987113;28;19910;-57
2022/04/17 08:15:25;;;;;;;;;;;;;;;;;;4908428;29;19914;-59
2022/04/17 08:20:55;;;;;;;;;;;;;;;;;;4986137;28;19906;-59
2022/04/17 08:26:18;;;;;;;;;;;;;;;;;;4909471;29;19913;-59
2022/04/17 08:28:47;;;;;;;;;;;;;;;;;;4983953;28;19910;-59
2022/04/17 08:31:26;;;;;;;;;;;;;;;;;;4985616;28;19910;-59
2022/04/17 08:34:02;;;;;;;;;;;;;;;;;;5005665;28;20360;-59
2022/04/17 08:36:35;;;;;;;;;;;;;;;;;;5006687;28;19912;-59
2022/04/17 08:39:04;;;;;;;;;;;;;;;;;;5006575;28;20259;-59
2022/04/17 08:41:40;;;;;;;;;;;;;;;;;;5007750;28;19906;-59
2022/04/17 08:44:06;;;;;;;;;;;;;;;;;;4984296;28;19988;-59
2022/04/17 08:46:41;;;;;;;;;;;;;;;;;;4984828;28;19906;-60
2022/04/17 08:49:21;;;;;;;;;;;;;;;;;;;;;
2022/04/17 08:54:55;;;;;;;;;;;;;;;;;;4985151;28;19940;-58
2022/04/17 08:57:22;;;;;;;;;;;;;;;;;;4983923;28;19977;-59
2022/04/17 09:02:43;;;;;;;;;;;;;;;;;;5003308;28;19924;-59
2022/04/17 09:08:04;;;;;;;;;;;;;;;;;;5006507;28;19929;-58
2022/04/17 09:10:37;;;;;;;;;;;;;;;;;;5006606;28;19968;-59
2022/04/17 09:13:06;;;;;;;;;;;;;;;;;;5005966;28;19922;-58
2022/04/17 09:15:35;;;;;;;;;;;;;;;;;;5006411;28;20376;-58
2022/04/17 09:18:13;;;;;;;;;;;;;;;;;;5005762;28;19921;-58
2022/04/17 09:20:46;;;;;;;;;;;;;;;;;;5006947;28;19948;-59
2022/04/17 09:26:21;;;;;;;;;;;;;;;;;;;;;
2022/04/17 09:28:48;;;;;;;;;;;;;;;;;;5005444;28;19985;-58
2022/04/17 09:34:40;;;;;;;;;;;;;;;;;;;;;
2022/04/17 09:37:19;;;;;;;;;;;;;;;;;;4964775;29;20017;-58
2022/04/17 09:39:54;;;;;;;;;;;;;;;;;;4965043;29;19917;-58
2022/04/17 09:42:23;;;;;;;;;;;;;;;;;;4988438;28;19937;-58
2022/04/17 09:45:00;;;;;;;;;;;;;;;;;;5005037;28;19906;-58
2022/04/17 09:47:33;;;;;;;;;;;;;;;;;;5003339;28;20231;-58
2022/04/17 09:50:03;;;;;;;;;;;;;;;;;;5006041;28;19968;-58
2022/04/17 09:52:48;;;;;;;;;;;;;;;;;;5006168;28;20592;-58
2022/04/17 09:55:24;;;;;;;;;;;;;;;;;;5006721;28;19920;-58
2022/04/17 09:57:53;;;;;;;;;;;;;;;;;;5003977;28;19912;-58
2022/04/17 10:00:25;;;;;;;;;;;;;;;;;;5005380;28;19905;-58
2022/04/17 10:03:07;;;;;;;;;;;;;;;;;;;;;
2022/04/17 10:05:45;;;;;;;;;;;;;;;;;;4971417;28;20265;-59
2022/04/17 10:08:17;;;;;;;;;;;;;;;;;;5005004;28;19937;-59
2022/04/17 10:13:32;;;;;;;;;;;;;;;;;;4993595;28;19917;-59
2022/04/17 10:16:00;;;;;;;;;;;;;;;;;;5004069;28;19912;-59
2022/04/17 10:18:33;;;;;;;;;;;;;;;;;;5002283;28;19916;-59
2022/04/17 10:21:03;;;;;;;;;;;;;;;;;;5005497;28;19920;-59
2022/04/17 10:23:32;;;;;;;;;;;;;;;;;;4983690;28;19914;-59
2022/04/17 10:26:02;;;;;;;;;;;;;;;;;;4983943;28;19956;-59
2022/04/17 10:34:15;;;;;;;;;;;;;;;;;;4945011;28;19910;-59
2022/04/17 10:36:50;;;;;;;;;;;;;;;;;;4994563;28;19972;-59
2022/04/17 10:39:20;;;;;;;;;;;;;;;;;;4992858;28;19906;-59
2022/04/17 10:41:53;;;;;;;;;;;;;;;;;;4997620;28;19906;-59
2022/04/17 10:44:22;;;;;;;;;;;;;;;;;;4996467;28;20386;-59
2022/04/17 10:46:56;;;;;;;;;;;;;;;;;;4997141;28;20352;-59
2022/04/17 10:49:37;;;;;;;;;;;;;;;;;;4994809;28;19924;-59
2022/04/17 10:52:12;;;;;;;;;;;;;;;;;;4997477;28;19906;-59
2022/04/17 10:57:28;;;;;;;;;;;;;;;;;;4996391;28;19913;-59
2022/04/17 10:59:55;;;;;;;;;;;;;;;;;;4995368;28;20371;-59
2022/04/17 11:02:27;;;;;;;;;;;;;;;;;;4997436;28;20327;-59
2022/04/17 11:05:07;;;;;;;;;;;;;;;;;;4995956;28;20348;-59
2022/04/17 11:07:35;;;;;;;;;;;;;;;;;;4994855;28;20183;-59
2022/04/17 11:10:11;;;;;;;;;;;;;;;;;;4997112;28;19909;-59
2022/04/17 11:12:40;;;;;;;;;;;;;;;;;;4997307;28;19902;-59
2022/04/17 11:15:10;;;;;;;;;;;;;;;;;;4996903;28;20314;-62
2022/04/17 11:17:47;;;;;;;;;;;;;;;;;;4996310;28;19964;-59
2022/04/17 11:20:19;;;;;;;;;;;;;;;;;;4996780;28;19906;-59
2022/04/17 11:22:48;;;;;;;;;;;;;;;;;;4997091;28;19983;-59
2022/04/17 11:25:23;;;;;;;;;;;;;;;;;;4995307;28;20237;-59
2022/04/17 11:28:07;;;;;;;;;;;;;;;;;;4996051;28;20377;-59
2022/04/17 11:33:48;;;;;;;;;;;;;;;;;;;;;
2022/04/17 11:42:14;;;;;;;;;;;;;;;;;;;;;
2022/04/17 11:45:08;;;;;;;;;;;;;;;;;;;;;
2022/04/17 11:50:46;;;;;;;;;;;;;;;;;;;;;
2022/04/17 11:53:12;;;;;;;;;;;;;;;;;;4965778;28;20231;-59
2022/04/17 11:55:41;;;;;;;;;;;;;;;;;;4996115;28;20271;-59
2022/04/17 11:58:13;;;;;;;;;;;;;;;;;;4993714;28;20352;-59
2022/04/17 12:03:39;;;;;;;;;;;;;;;;;;4994930;28;20343;-59
2022/04/17 12:11:51;;;;;;;;;;;;;;;;;;4973684;28;19936;-59
2022/04/17 12:20:01;;;;;;;;;;;;;;;;;;4903607;29;19907;-59
2022/04/17 12:22:30;;;;;;;;;;;;;;;;;;4916208;29;20436;-62
2022/04/17 12:25:02;;;;;;;;;;;;;;;;;;4916273;29;20107;-59
2022/04/17 12:27:37;;;;;;;;;;;;;;;;;;4899419;29;20361;-59
2022/04/17 12:30:15;;;;;;;;;;;;;;;;;;4916252;29;20308;-59
2022/04/17 12:33:00;;;;;;;;;;;;;;;;;;;;;
2022/04/17 12:38:24;;;;;;;;;;;;;;;;;;4859107;29;20006;-59
2022/04/17 12:40:59;;;;;;;;;;;;;;;;;;4900050;29;19935;-59
2022/04/17 12:43:31;;;;;;;;;;;;;;;;;;4932764;28;19997;-58
2022/04/17 12:46:25;;;;;;;;;;;;;;;;;;;;;
2022/04/17 12:48:54;;;;;;;;;;;;;;;;;;4953059;29;19921;-59
2022/04/17 12:51:23;;;;;;;;;;;;;;;;;;4936780;29;20372;-59
2022/04/17 12:53:58;;;;;;;;;;;;;;;;;;4953605;29;19907;-59
2022/04/17 12:56:32;;;;;;;;;;;;;;;;;;4953550;29;19997;-59
2022/04/17 12:59:04;;;;;;;;;;;;;;;;;;4952992;29;19933;-59
2022/04/17 13:01:48;;;;;;;;;;;;;;;;;;4951831;28;20364;-59
2022/04/17 13:04:24;;;;;;;;;;;;;;;;;;4945107;29;19944;-59
2022/04/17 13:06:53;;;;;;;;;;;;;;;;;;4953244;28;20357;-59
2022/04/17 13:09:21;;;;;;;;;;;;;;;;;;4952898;28;19914;-59
2022/04/17 13:11:47;;;;;;;;;;;;;;;;;;4953577;28;19910;-59
2022/04/17 13:14:24;;;;;;;;;;;;;;;;;;4978272;28;19956;-59
2022/04/17 13:17:03;;;;;;;;;;;;;;;;;;;;;
2022/04/17 13:19:35;;;;;;;;;;;;;;;;;;4994457;28;19906;-59
2022/04/17 13:22:04;;;;;;;;;;;;;;;;;;4994658;28;19949;-59
2022/04/17 13:24:32;;;;;;;;;;;;;;;;;;4994446;28;19917;-59
2022/04/17 13:26:59;;;;;;;;;;;;;;;;;;4995413;28;19913;-60
2022/04/17 13:29:30;;;;;;;;;;;;;;;;;;4991931;28;19913;-59
2022/04/17 13:32:05;;;;;;;;;;;;;;;;;;4994670;28;19916;-59
2022/04/17 13:40:15;;;;;;;;;;;;;;;;;;;;;
2022/04/17 13:42:56;;;;;;;;;;;;;;;;;;4994659;28;19989;-59
2022/04/17 13:45:25;;;;;;;;;;;;;;;;;;4994604;28;20029;-59
2022/04/17 13:48:01;;;;;;;;;;;;;;;;;;;;;
2022/04/17 13:50:40;;;;;;;;;;;;;;;;;;;;;
2022/04/17 13:53:51;;;;;;;;;;;;;;;;;;4991610;28;20004;-59
2022/04/17 13:56:18;;;;;;;;;;;;;;;;;;;;;
2022/04/17 13:58:47;;;;;;;;;;;;;;;;;;4991008;28;19977;-60
2022/04/17 14:04:12;;;;;;;;;;;;;;;;;;4985423;28;19905;-59
2022/04/17 14:12:37;;;;;;;;;;;;;;;;;;4981353;28;19910;-60
2022/04/17 14:17:53;;;;;;;;;;;;;;;;;;4995146;28;19906;-60
2022/04/17 14:20:52;;;;;;;;;;;;;;;;;;4978372;28;20403;-60
2022/04/17 14:23:24;;;;;;;;;;;;;;;;;;4995825;28;20275;-60
2022/04/17 14:26:08;;;;;;;;;;;;;;;;;;5000555;28;19909;-60
2022/04/17 14:31:26;;;;;;;;;;;;;;;;;;4993907;28;20279;-60
2022/04/17 14:36:47;;;;;;;;;;;;;;;;;;4978212;28;19981;-60
2022/04/17 14:39:16;;;;;;;;;;;;;;;;;;4998686;28;19905;-60
2022/04/17 14:41:45;;;;;;;;;;;;;;;;;;4999902;28;20064;-59
2022/04/17 14:44:11;;;;;;;;;;;;;;;;;;4999833;28;19964;-59
2022/04/17 14:46:43;;;;;;;;;;;;;;;;;;4995326;28;19906;-60
2022/04/17 14:51:55;;;;;;;;;;;;;;;;;;5000431;28;20019;-60
2022/04/17 14:54:39;;;;;;;;;;;;;;;;;;4997290;28;20000;-60
2022/04/17 15:02:59;;;;;;;;;;;;;;;;;;4978137;28;19997;-60
2022/04/17 15:08:20;;;;;;;;;;;;;;;;;;4997831;28;19964;-59
2022/04/17 15:10:51;;;;;;;;;;;;;;;;;;4999725;28;19913;-59
2022/04/17 15:13:28;;;;;;;;;;;;;;;;;;4958524;29;20440;-59
2022/04/17 15:18:46;;;;;;;;;;;;;;;;;;4976800;28;19929;-59
2022/04/17 15:21:18;;;;;;;;;;;;;;;;;;4998475;28;19972;-60
2022/04/17 15:24:02;;;;;;;;;;;;;;;;;;4995101;28;19917;-58
2022/04/17 15:26:31;;;;;;;;;;;;;;;;;;4983458;28;19965;-60
2022/04/17 15:29:04;;;;;;;;;;;;;;;;;;4995418;28;20375;-59
2022/04/17 15:31:33;;;;;;;;;;;;;;;;;;5003190;28;19921;-60
2022/04/17 15:39:34;;;;;;;;;;;;;;;;;;5007587;28;19912;-60
2022/04/17 15:42:19;;;;;;;;;;;;;;;;;;5007936;28;19929;-60
2022/04/17 15:51:24;;;;;;;;;;;;;;;;;;;;;
2022/04/17 15:53:16;;;;;;;;;;;;;;;;;;5000204;28;19912;-60
2022/04/17 15:58:45;;;;;;;;;;;;;;;;;;;;;
2022/04/17 16:01:11;;;;;;;;;;;;;;;;;;4987674;28;19969;-60
2022/04/17 16:03:38;;;;;;;;;;;;;;;;;;5007365;28;19906;-60
2022/04/17 16:06:13;;;;;;;;;;;;;;;;;;5007890;28;19932;-58
2022/04/17 16:08:46;;;;;;;;;;;;;;;;;;5007607;28;20008;-58
2022/04/17 16:13:58;;;;;;;;;;;;;;;;;;5007140;28;19905;-60
2022/04/17 16:16:27;;;;;;;;;;;;;;;;;;5007465;28;19921;-60
2022/04/17 16:19:19;;;;;;;;;;;;;;;;;;;;;
2022/04/17 16:21:48;;;;;;;;;;;;;;;;;;5005509;28;19945;-60
2022/04/17 16:24:26;;;;;;;;;;;;;;;;;;5006598;28;19918;-59
2022/04/17 16:30:00;;;;;;;;;;;;;;;;;;5002599;28;19921;-59
2022/04/17 16:32:27;;;;;;;;;;;;;;;;;;5005049;28;20257;-59
2022/04/17 16:34:55;;;;;;;;;;;;;;;;;;5006804;28;19905;-59
2022/04/17 16:40:08;;;;;;;;;;;;;;;;;;4965834;29;19907;-61
2022/04/17 16:42:35;;;;;;;;;;;;;;;;;;4997578;28;19916;-59
2022/04/17 16:45:04;;;;;;;;;;;;;;;;;;5006705;28;19906;-59
2022/04/17 16:47:30;;;;;;;;;;;;;;;;;;5006117;28;20263;-59
2022/04/17 16:55:50;;;;;;;;;;;;;;;;;;5006307;28;19906;-59
2022/04/17 17:12:39;;;;;;;;;;;;;;;;;;5001734;28;20256;-60
2022/04/17 17:15:11;;;;;;;;;;;;;;;;;;5006716;28;19912;-59
2022/04/17 17:17:37;;;;;;;;;;;;;;;;;;5006218;28;20728;-59
2022/04/17 17:20:06;;;;;;;;;;;;;;;;;;5006023;28;19909;-59
2022/04/17 17:22:45;;;;;;;;;;;;;;;;;;5006301;28;19933;-59
2022/04/17 17:25:11;;;;;;;;;;;;;;;;;;5005450;28;20392;-60
2022/04/17 17:27:37;;;;;;;;;;;;;;;;;;5004427;28;19910;-59
2022/04/17 17:30:03;;;;;;;;;;;;;;;;;;5004892;28;19957;-59
2022/04/17 17:32:35;;;;;;;;;;;;;;;;;;4995262;28;20253;-59
2022/04/17 17:35:11;;;;;;;;;;;;;;;;;;4992989;28;20237;-60
2022/04/17 17:37:38;;;;;;;;;;;;;;;;;;4993822;28;19956;-59
2022/04/17 17:42:50;;;;;;;;;;;;;;;;;;4994476;28;19912;-59
2022/04/17 17:45:25;;;;;;;;;;;;;;;;;;4994098;28;19905;-59
2022/04/17 17:47:58;;;;;;;;;;;;;;;;;;4992724;28;19938;-60
2022/04/17 17:53:51;;;;;;;;;;;;;;;;;;;;;
2022/04/17 17:59:25;;;;;;;;;;;;;;;;;;4971531;28;19903;-59
2022/04/17 18:02:01;;;;;;;;;;;;;;;;;;;;;
2022/04/17 18:15:49;;;;;;;;;;;;;;;;;;4972343;28;19929;-59
2022/04/17 18:18:25;;;;;;;;;;;;;;;;;;4954791;28;19906;-60
2022/04/17 18:20:56;;;;;;;;;;;;;;;;;;4972312;28;19936;-60
2022/04/17 18:23:25;;;;;;;;;;;;;;;;;;4952447;29;20365;-60
2022/04/17 18:25:54;;;;;;;;;;;;;;;;;;4992167;28;19973;-59
2022/04/17 18:28:29;;;;;;;;;;;;;;;;;;4993580;28;20001;-61
2022/04/17 18:31:13;;;;;;;;;;;;;;;;;;4994129;28;19924;-59
2022/04/17 18:33:40;;;;;;;;;;;;;;;;;;4992466;28;19916;-59
2022/04/17 18:36:18;;;;;;;;;;;;;;;;;;4971104;28;20442;-60
2022/04/17 18:38:48;;;;;;;;;;;;;;;;;;4968275;28;20431;-58
2022/04/17 18:41:36;;;;;;;;;;;;;;;;;;;;;
2022/04/17 18:44:02;;;;;;;;;;;;;;;;;;4993559;28;20005;-58
2022/04/17 18:46:34;;;;;;;;;;;;;;;;;;4993583;28;19949;-58
2022/04/17 18:51:57;;;;;;;;;;;;;;;;;;4988786;28;19936;-60
2022/04/17 18:54:26;;;;;;;;;;;;;;;;;;4993468;28;19910;-59
2022/04/17 18:56:56;;;;;;;;;;;;;;;;;;4994568;28;19960;-59
2022/04/17 18:59:39;;;;;;;;;;;;;;;;;;4999523;28;19913;-60
2022/04/17 19:02:14;;;;;;;;;;;;;;;;;;4996981;28;19912;-59
2022/04/17 19:04:42;;;;;;;;;;;;;;;;;;4994790;28;20385;-60
2022/04/17 19:07:26;;;;;;;;;;;;;;;;;;4995613;28;20150;-59
2022/04/17 19:09:59;;;;;;;;;;;;;;;;;;4997035;28;19921;-60
2022/04/17 19:15:12;;;;;;;;;;;;;;;;;;4997025;28;19993;-59
2022/04/17 19:17:56;;;;;;;;;;;;;;;;;;4996113;28;19913;-60
2022/04/17 19:20:26;;;;;;;;;;;;;;;;;;4997311;28;20383;-59
2022/04/17 19:22:52;;;;;;;;;;;;;;;;;;4996641;28;19906;-59
2022/04/17 19:36:31;;;;;;;;;;;;;;;;;;4996782;28;19924;-58
2022/04/17 19:44:44;;;;;;;;;;;;;;;;;;4996667;28;19910;-58
2022/04/17 19:53:45;;;;;;;;;;;;;;;;;;4983875;28;20287;-59
2022/04/17 19:56:07;;;;;;;;;;;;;;;;;;4994611;28;20302;-59
2022/04/17 19:58:33;;;;;;;;;;;;;;;;;;4995619;28;19933;-59
2022/04/17 20:01:06;;;;;;;;;;;;;;;;;;4996687;28;19993;-59
2022/04/17 20:09:07;;;;;;;;;;;;;;;;;;4990588;28;19914;-58
2022/04/17 20:11:54;;;;;;;;;;;;;;;;;;4988734;28;19913;-58
2022/04/17 20:14:40;;;;;;;;;;;;;;;;;;4995444;28;19905;-58
2022/04/17 20:17:09;;;;;;;;;;;;;;;;;;4995284;28;19910;-59
2022/04/17 20:19:36;;;;;;;;;;;;;;;;;;4995177;28;20224;-58
2022/04/17 20:25:02;;;;;;;;;;;;;;;;;;4995930;28;19912;-58
2022/04/17 20:27:31;;;;;;;;;;;;;;;;;;4994836;28;19954;-59
2022/04/17 20:30:03;;;;;;;;;;;;;;;;;;4995684;28;19921;-59
2022/04/17 20:32:50;;;;;;;;;;;;;;;;;;4995736;28;20485;-59
2022/04/17 20:35:25;;;;;;;;;;;;;;;;;;4995169;28;19910;-59
2022/04/17 20:38:16;;;;;;;;;;;;;;;;;;4995033;28;20078;-59
2022/04/17 20:40:58;;;;;;;;;;;;;;;;;;4994862;28;19905;-58
2022/04/17 20:54:41;;;;;;;;;;;;;;;;;;;;;
2022/04/17 20:57:25;;;;;;;;;;;;;;;;;;4987252;28;20010;-57
2022/04/17 21:05:49;;;;;;;;;;;;;;;;;;4999118;28;19939;-58
2022/04/17 21:08:30;;;;;;;;;;;;;;;;;;5006631;28;19913;-58
2022/04/17 21:10:56;;;;;;;;;;;;;;;;;;5007471;28;20319;-58
2022/04/17 21:21:50;;;;;;;;;;;;;;;;;;4998029;28;19917;-58
2022/04/17 21:24:22;;;;;;;;;;;;;;;;;;5005541;28;19910;-58
2022/04/17 21:26:54;;;;;;;;;;;;;;;;;;5006697;28;19906;-58
2022/04/17 21:32:27;;;;;;;;;;;;;;;;;;4997511;28;19925;-58
2022/04/17 21:34:53;;;;;;;;;;;;;;;;;;5006904;28;19906;-58
2022/04/17 21:37:29;;;;;;;;;;;;;;;;;;5006480;28;19916;-58
2022/04/17 21:40:17;;;;;;;;;;;;;;;;;;5007062;28;19977;-58
2022/04/17 21:42:51;;;;;;;;;;;;;;;;;;5007003;28;19976;-58
2022/04/17 21:45:38;;;;;;;;;;;;;;;;;;5006601;28;19952;-58
2022/04/17 21:50:50;;;;;;;;;;;;;;;;;;5007078;28;19992;-58
2022/04/17 21:53:23;;;;;;;;;;;;;;;;;;5005167;28;19910;-58
2022/04/17 21:55:49;;;;;;;;;;;;;;;;;;5006892;28;19920;-58
2022/04/17 21:58:21;;;;;;;;;;;;;;;;;;5006001;28;19996;-58
2022/04/17 22:06:26;;;;;;;;;;;;;;;;;;5007160;28;19912;-58
2022/04/17 22:08:55;;;;;;;;;;;;;;;;;;5005915;28;19916;-58
2022/04/17 22:11:21;;;;;;;;;;;;;;;;;;5005768;28;19910;-58
2022/04/17 22:13:50;;;;;;;;;;;;;;;;;;5006982;28;19913;-58
2022/04/17 22:16:32;;;;;;;;;;;;;;;;;;5006523;28;19906;-58
2022/04/17 22:18:58;;;;;;;;;;;;;;;;;;5006351;28;19906;-58
2022/04/17 22:21:27;;;;;;;;;;;;;;;;;;5006639;28;19909;-58
2022/04/17 22:27:00;;;;;;;;;;;;;;;;;;5005030;28;19929;-58
2022/04/17 22:32:11;;;;;;;;;;;;;;;;;;5006686;28;20026;-58
2022/04/17 22:34:44;;;;;;;;;;;;;;;;;;5010491;28;19969;-58
2022/04/17 22:40:18;;;;;;;;;;;;;;;;;;5001770;28;20430;-58
2022/04/17 22:43:02;;;;;;;;;;;;;;;;;;5010626;28;19910;-58
2022/04/17 22:45:35;;;;;;;;;;;;;;;;;;5010433;28;19999;-58
2022/04/17 22:51:00;;;;;;;;;;;;;;;;;;5006446;28;19905;-58
2022/04/17 22:53:29;;;;;;;;;;;;;;;;;;5010590;28;19913;-58
2022/04/17 22:55:59;;;;;;;;;;;;;;;;;;5010253;28;19973;-58
2022/04/17 22:58:29;;;;;;;;;;;;;;;;;;5009021;28;19936;-58
2022/04/17 23:01:13;;;;;;;;;;;;;;;;;;5010244;28;19905;-58
2022/04/17 23:06:32;;;;;;;;;;;;;;;;;;5008339;28;19906;-58
2022/04/17 23:09:01;;;;;;;;;;;;;;;;;;5009102;28;19914;-58
2022/04/17 23:11:42;;;;;;;;;;;;;;;;;;5009696;28;19928;-58
2022/04/17 23:14:17;;;;;;;;;;;;;;;;;;5009831;28;19913;-58
2022/04/17 23:16:47;;;;;;;;;;;;;;;;;;5009650;28;19980;-58
2022/04/17 23:25:17;;;;;;;;;;;;;;;;;;4988465;28;19942;-58
2022/04/17 23:30:38;;;;;;;;;;;;;;;;;;5008557;28;19905;-58
2022/04/17 23:33:04;;;;;;;;;;;;;;;;;;5008891;28;19918;-58
2022/04/17 23:35:39;;;;;;;;;;;;;;;;;;5009299;28;19913;-58
2022/04/17 23:41:02;;;;;;;;;;;;;;;;;;4987584;28;19906;-58
2022/04/17 23:43:44;;;;;;;;;;;;;;;;;;4986399;28;19977;-58
2022/04/17 23:46:10;;;;;;;;;;;;;;;;;;4987030;28;19938;-58
2022/04/17 23:48:49;;;;;;;;;;;;;;;;;;4986222;28;19946;-58
2022/04/17 23:54:17;;;;;;;;;;;;;;;;;;4986727;28;19906;-58
2022/04/17 23:59:28;;;;;;;;;;;;;;;;;;5007761;28;19920;-58
